Alba, Missouri
Current Conditions -  °F | °C
As of 9:33 PM on Sunday 23 Nov 2014 (Local Time) from KJLN Reporting Station
Moderate Rain Moderate Rain  
Wind Chill: 34°   Ceiling: 1200
Heat Index: 43°   Visibility: 6mi
Dew Point: 41°   Wind: 20mph
Humidity: 93%   Direction: 320°NW
Pressure: 29.48"   Gusts: 29mph
Location:  37.24°N, 94.42°W
Report Text: KJLN 240333Z AUTO 32017G25KT 6SM RA BR BKN012 OVC018 06/05 A2948 RMK AO2 PK WND 33027/0321 P0011 T00610050
Loading
Personal Weather Stations






























Interactive Weather Map New forecast layout! Learn more

10-Day Weather Forecast

Advertisements
Track Severe Weather on mobile